• Join FlightAware (Why Join?)
  • Login
  • US Flag 
03:58AM EDT


 

Airport Tracker/Info


-or-


 

Live Flight TrackerFlight Track Log ✈ ASQ4233 ✈ 10-May-2013 ✈ KIAH - KBHM

Flight Track Log - Related Links

Times and Time Zones

All times are in EDT time to prevent confusion due to time zone crossing. See the ASQ4233 flight status page for this flight to view local times or setup timezone preferences in your user account.

Time Position Orientation Groundspeed Altitude Reporting Facility
EDT Latitude Longitude Course Direction KTS MPH feet Rate Location/Type
07:05PM 29.9767 -95.3008 30° Northeast 172 198 600  Level Houston Center
07:06PM 29.9872 -95.2778 62° Northeast 179 206 1,600 1,320 Climbing Houston Center
07:07PM 30.0417 -95.2583 17° North 237 273 2,600 1,200 Climbing Houston Center
07:08PM 30.1119 -95.2361 15° North 251 289 4,000 1,800 Climbing Houston Center
07:09PM 30.4436 -95.1439 27° Northeast  Level FlightAware Approximate
07:09PM 30.1825 -95.2153 14° North 259 298 6,400  Level Houston Center
07:10PM 30.5539 -95.0863 30° Northeast  Level FlightAware Approximate
07:10PM 30.2600 -95.2011 North 269 310 8,300  Level Houston Center
07:11PM 30.3394 -95.1853 10° North 279 321 10,000 1,260 Climbing Houston Center
07:12PM 30.4461 -95.1625 10° North 310 357 10,900 900 Climbing Houston Center
07:13PM 30.5364 -95.1094 27° Northeast 341 392 11,900 960 Climbing Houston Center
07:14PM 30.6289 -95.0500 29° Northeast 364 419 12,900 960 Climbing Houston Center
07:15PM 30.7258 -94.9892 28° Northeast 380 437 13,900 960 Climbing Houston Center
07:16PM 30.8250 -94.9275 28° Northeast 393 452 14,900 1,200 Climbing Houston Center
07:17PM 30.9247 -94.8656 28° Northeast 401 461 16,500 1,560 Climbing Houston Center
07:18PM 30.9844 -94.8306 27° Northeast 399 459 17,500 1,680 Climbing Fort Worth Center
07:19PM 31.0792 -94.7697 29° Northeast 393 452 19,200 1,620 Climbing Fort Worth Center
07:20PM 31.1861 -94.6986 30° Northeast 393 452 20,800 1,440 Climbing Fort Worth Center
07:21PM 31.2850 -94.6350 29° Northeast 387 445 22,100 1,260 Climbing Fort Worth Center
07:22PM 31.3858 -94.5664 30° Northeast 393 452 23,400 1,200 Climbing Fort Worth Center
07:23PM 31.4844 -94.4950 32° Northeast 406 467 24,600 1,200 Climbing Fort Worth Center
07:24PM 31.5831 -94.4261 31° Northeast 406 467 25,900 1,260 Climbing Fort Worth Center
07:25PM 31.6817 -94.3569 31° Northeast 406 467 27,200 1,260 Climbing Fort Worth Center
07:26PM 31.7736 -94.2783 36° Northeast 406 467 28,500 900 Climbing Fort Worth Center
07:27PM 31.8522 -94.1703 49° Northeast 416 479 29,000 240 Climbing Fort Worth Center
07:28PM 31.8950 -94.0464 68° East 427 491 29,000  Level Fort Worth Center
07:29PM 31.9467 -93.8806 70° East 454 522 29,000  Level Fort Worth Center
07:30PM 31.9850 -93.7542 70° East 479 551 29,000  Level Fort Worth Center
07:31PM 32.0403 -93.5831 69° East 496 571 29,000  Level Fort Worth Center
07:32PM 32.0897 -93.4239 70° East 506 582 29,000  Level Fort Worth Center
07:33PM 32.1428 -93.2622 69° East 518 596 29,000  Level Fort Worth Center
07:34PM 32.1994 -93.0803 70° East 529 609 29,000  Level Fort Worth Center
07:35PM 32.2447 -92.9408 69° East 522 601 29,000  Level Fort Worth Center
07:36PM 32.2911 -92.7811 71° East 514 592 29,000  Level Fort Worth Center
07:37PM 32.3414 -92.6189 70° East 514 592 29,000  Level Fort Worth Center
07:38PM 32.3914 -92.4586 70° East 514 592 29,000  Level Fort Worth Center
07:40PM 32.5186 -92.0400 70° East 515 593 29,000  Level Memphis Center
07:41PM 32.5583 -91.8731 74° East 515 593 29,000  Level Memphis Center
07:42PM 32.5958 -91.7111 75° East 515 593 29,000  Level Memphis Center
07:43PM 32.6350 -91.5489 74° East 510 587 29,000  Level Memphis Center
07:44PM 32.6717 -91.4011 74° East 515 593 29,000  Level Memphis Center
07:45PM 32.6961 -91.2336 80° East 510 587 29,000  Level Memphis Center
07:46PM 32.6761 -91.0706 98° East 493 567 29,000  Level Memphis Center
07:47PM 32.6583 -90.9075 97° East 498 573 29,000  Level Memphis Center
07:48PM 32.6358 -90.7422 99° East 498 573 29,000  Level Memphis Center
07:49PM 32.6153 -90.5744 98° East 503 579 29,000  Level Memphis Center
07:50PM 32.5947 -90.4092 98° East 503 579 29,000  Level Memphis Center
07:51PM 32.5717 -90.2414 99° East 509 586 29,000  Level Memphis Center
07:52PM 32.5525 -90.0739 98° East 509 586 29,000  Level Memphis Center
07:53PM 32.5292 -89.9064 99° East 509 586 29,000 -300 Level Memphis Center
07:54PM 32.5053 -89.7217 99° East 509 586 28,500 -720 Descending Memphis Center
07:55PM 32.4814 -89.5519 99° East 514 592 27,600 -960 Descending Memphis Center
07:56PM 32.4594 -89.3847 99° East 514 592 26,600 -960 Descending Memphis Center
07:57PM 32.4369 -89.2175 99° East 519 597 25,700 -1,200 Descending Memphis Center
07:58PM 32.4144 -89.0531 99° East 519 597 24,200 -1,380 Descending Memphis Center
07:59PM 32.3919 -88.8958 100° East 505 581 23,000 -600 Descending Memphis Center
08:00PM 32.4214 -88.7453 77° East 460 529 23,000  Level Memphis Center
08:01PM 32.5033 -88.6256 51° Northeast 439 505 23,000  Level Memphis Center
08:02PM 32.5892 -88.5056 50° Northeast 453 521 23,000  Level Memphis Center
08:03PM 32.6728 -88.3831 51° Northeast 465 535 23,000  Level Memphis Center
08:05PM 32.8172 -88.1689 51° Northeast 490 564 23,000  Level Atlanta Center
08:06PM 32.9028 -88.0419 51° Northeast 490 564 23,000 -180 Level Atlanta Center
08:07PM 32.9881 -87.9219 50° Northeast 483 556 22,700 -1,200 Descending Atlanta Center
08:08PM 33.0669 -87.7964 53° Northeast 478 550 20,700 -2,220 Descending Atlanta Center
08:09PM 33.1453 -87.6858 50° Northeast 462 532 18,300 -2,520 Descending Atlanta Center
08:10PM 33.2131 -87.5894 50° Northeast 426 490 16,200 -2,460 Descending Atlanta Center
08:11PM 33.2850 -87.4781 52° Northeast 427 491 13,900 -2,100 Descending Atlanta Center
08:12PM 33.3464 -87.3661 57° Northeast 388 447 12,000 -1,560 Descending Atlanta Center
08:13PM 33.4019 -87.2439 61° Northeast 358 412 10,500 -1,380 Descending Atlanta Center
08:14PM 33.4328 -87.1828 59° Northeast 297 342 9,400 -1,620 Descending Atlanta Center
08:14PM 33.4417 -87.1556 69° East 321 369 8,900 -1,680 Descending Atlanta Center
08:15PM 33.4725 -87.0994 57° Northeast 292 336 7,700 -1,740 Descending Atlanta Center
08:15PM 33.4856 -87.0725 60° Northeast 301 346 7,200 -1,800 Descending Atlanta Center
08:16PM 33.5119 -87.0136 62° Northeast 288 331 5,900 -1,740 Descending Atlanta Center
08:16PM 33.5231 -86.9892 61° Northeast 288 331 5,500 -900 Descending Atlanta Center
08:17PM 33.5450 -86.9400 62° Northeast 275 316 5,100 -540 Descending Atlanta Center
08:17PM 33.5603 -86.9106 58° Northeast 277 319 5,000  Descending Atlanta Center
08:18PM 33.5867 -86.8567 60° Northeast 268 308 5,100 -780 Climbing Atlanta Center
08:19PM 33.6239 -86.7806 60° Northeast 262 302 3,700 -1,440 Descending Atlanta Center